createdAt,value
2017-08-29T00:00:15.570Z,100902.97
2017-08-29T00:02:43.021Z,100897.62
2017-08-29T00:05:10.207Z,100894.52
2017-08-29T00:07:37.372Z,100893.12
2017-08-29T00:10:04.890Z,100891.79
2017-08-29T00:12:32.072Z,100889.12
2017-08-29T00:14:59.576Z,100889.12
2017-08-29T00:17:26.771Z,100890.94
2017-08-29T00:19:53.963Z,100890.03
2017-08-29T00:22:21.448Z,100889.55
2017-08-29T00:24:48.621Z,100890.03
2017-08-29T00:27:16.372Z,100895.80
2017-08-29T00:29:43.555Z,100892.27
2017-08-29T00:32:10.729Z,100894.41
2017-08-29T00:34:37.964Z,100891.30
2017-08-29T00:37:05.273Z,100893.61
2017-08-29T00:39:32.925Z,100885.96
2017-08-29T00:42:00.108Z,100885.11
2017-08-29T00:44:27.274Z,100889.60
2017-08-29T00:46:54.679Z,100885.59
2017-08-29T00:49:21.855Z,100878.48
2017-08-29T00:51:49.163Z,100880.25
2017-08-29T00:54:16.353Z,100869.56
2017-08-29T00:56:43.527Z,100874.05
2017-08-29T00:59:11.067Z,100874.08
2017-08-29T01:01:38.287Z,100869.16
2017-08-29T01:04:05.953Z,100869.16
2017-08-29T01:06:33.126Z,100870.07
2017-08-29T01:09:00.301Z,100866.46
2017-08-29T01:11:27.488Z,100859.36
2017-08-29T01:13:54.749Z,100859.36
2017-08-29T01:16:22.242Z,100857.14
2017-08-29T01:18:49.590Z,100859.78
2017-08-29T01:21:17.045Z,100859.81
2017-08-29T01:23:44.509Z,100862.94
2017-08-29T01:26:11.695Z,100856.69
2017-08-29T01:28:38.862Z,100858.93
2017-08-29T01:31:06.047Z,100852.67
2017-08-29T01:33:33.410Z,100853.10
2017-08-29T01:36:00.595Z,100854.86
2017-08-29T01:38:27.899Z,100853.53
2017-08-29T01:40:55.076Z,100851.77
2017-08-29T01:43:22.263Z,100850.43
2017-08-29T01:45:49.464Z,100847.70
2017-08-29T01:48:16.924Z,100844.60
2017-08-29T01:50:44.116Z,100839.74
2017-08-29T01:53:11.539Z,100840.66
2017-08-29T01:55:38.993Z,100833.97
2017-08-29T01:58:06.515Z,100828.20
2017-08-29T02:00:33.910Z,100832.21
2017-08-29T02:03:01.081Z,100834.40
2017-08-29T02:05:28.518Z,100835.25
2017-08-29T02:07:56.161Z,100835.31
2017-08-29T02:10:23.321Z,100833.06
2017-08-29T02:12:50.504Z,100832.64
2017-08-29T02:15:17.736Z,100833.97
2017-08-29T02:17:44.901Z,100824.63
2017-08-29T02:20:12.080Z,100825.05
2017-08-29T02:22:39.258Z,100823.28
2017-08-29T02:25:06.811Z,100814.78
2017-08-29T02:27:34.098Z,100815.69
2017-08-29T02:30:01.620Z,100819.28
2017-08-29T02:32:29.116Z,100814.78
2017-08-29T02:34:56.311Z,100818.80
2017-08-29T02:37:23.674Z,100817.94
2017-08-29T02:39:51.141Z,100820.61
2017-08-29T02:42:19.145Z,100819.28
2017-08-29T02:44:46.594Z,100819.73
2017-08-29T02:47:14.059Z,100817.03
2017-08-29T02:49:41.712Z,100814.44
2017-08-29T02:52:08.973Z,100816.61
2017-08-29T02:54:36.444Z,100820.13
2017-08-29T02:57:03.964Z,100808.16
2017-08-29T02:59:31.455Z,100813.45
2017-08-29T03:01:59.001Z,100814.78
2017-08-29T03:04:26.180Z,100812.63
2017-08-29T03:06:53.353Z,100809.92
2017-08-29T03:09:20.542Z,100815.20
2017-08-29T03:11:48.011Z,100810.78
2017-08-29T03:14:15.472Z,100801.91
2017-08-29T03:16:42.643Z,100802.82
2017-08-29T03:19:09.816Z,100801.94
2017-08-29T03:21:37.228Z,100806.34
2017-08-29T03:24:04.435Z,100807.70
2017-08-29T03:26:31.600Z,100803.70
2017-08-29T03:28:58.765Z,100800.15
2017-08-29T03:31:26.453Z,100798.35
2017-08-29T03:33:54.077Z,100804.16
2017-08-29T03:36:21.366Z,100801.91
2017-08-29T03:38:49.015Z,100801.91
2017-08-29T03:41:16.204Z,100800.58
2017-08-29T03:43:43.733Z,100799.69
2017-08-29T03:46:11.188Z,100789.88
2017-08-29T03:48:38.353Z,100799.66
2017-08-29T03:51:05.517Z,100794.80
2017-08-29T03:53:32.684Z,100794.80
2017-08-29T03:55:59.869Z,100794.80
2017-08-29T03:58:27.059Z,100793.47
2017-08-29T04:00:54.273Z,100793.89
2017-08-29T04:03:21.862Z,100794.31
2017-08-29T04:05:49.235Z,100796.51
2017-08-29T04:08:16.420Z,100798.81
2017-08-29T04:10:44.071Z,100801.00
2017-08-29T04:13:11.308Z,100805.86
2017-08-29T04:15:38.473Z,100806.28
2017-08-29T04:18:05.683Z,100798.33
2017-08-29T04:20:32.858Z,100802.76
2017-08-29T04:23:00.285Z,100797.42
2017-08-29T04:25:27.744Z,100799.18
2017-08-29T04:27:54.919Z,100800.09
2017-08-29T04:30:22.460Z,100804.09
2017-08-29T04:32:49.775Z,100800.58
2017-08-29T04:35:17.270Z,100803.19
2017-08-29T04:37:44.788Z,100797.47
2017-08-29T04:40:11.987Z,100797.91
2017-08-29T04:42:39.323Z,100800.09
2017-08-29T04:45:06.715Z,100798.75
2017-08-29T04:47:34.007Z,100796.51
2017-08-29T04:50:01.393Z,100800.58
2017-08-29T04:52:28.562Z,100801.84
2017-08-29T04:54:56.007Z,100805.44
2017-08-29T04:57:23.559Z,100806.34
2017-08-29T04:59:50.746Z,100802.76
2017-08-29T05:02:18.068Z,100802.34
2017-08-29T05:04:45.703Z,100805.92
2017-08-29T05:07:13.059Z,100804.95
2017-08-29T05:09:40.415Z,100808.11
2017-08-29T05:12:08.504Z,100808.16
2017-08-29T05:14:35.706Z,100816.18
2017-08-29T05:17:03.117Z,100813.05
2017-08-29T05:19:30.288Z,100821.04
2017-08-29T05:21:58.037Z,100816.55
2017-08-29T05:24:25.202Z,100813.93
2017-08-29T05:26:52.379Z,100813.02
2017-08-29T05:29:19.789Z,100810.78
2017-08-29T05:31:46.953Z,100812.59
2017-08-29T05:34:14.166Z,100810.29
2017-08-29T05:36:41.736Z,100815.20
2017-08-29T05:39:08.995Z,100808.95
2017-08-29T05:41:36.347Z,100805.00
2017-08-29T05:44:03.525Z,100809.44
2017-08-29T05:46:30.754Z,100808.95
2017-08-29T05:48:58.225Z,100810.78
2017-08-29T05:51:25.392Z,100812.54
2017-08-29T05:53:52.837Z,100812.11
2017-08-29T05:56:20.281Z,100820.13
2017-08-29T05:58:47.445Z,100813.93
2017-08-29T06:01:14.905Z,100813.45
2017-08-29T06:03:42.349Z,100807.20
2017-08-29T06:06:09.895Z,100813.36
2017-08-29T06:08:37.315Z,100817.80
2017-08-29T06:11:04.909Z,100812.45
2017-08-29T06:13:32.183Z,100811.97
2017-08-29T06:15:59.692Z,100809.78
2017-08-29T06:18:27.089Z,100811.97
2017-08-29T06:20:54.558Z,100819.56
2017-08-29T06:23:21.748Z,100810.63
2017-08-29T06:25:49.919Z,100813.73
2017-08-29T06:28:17.217Z,100802.98
2017-08-29T06:30:44.546Z,100807.91
2017-08-29T06:33:11.724Z,100803.05
2017-08-29T06:35:39.157Z,100798.97
2017-08-29T06:38:06.345Z,100803.38
2017-08-29T06:40:33.670Z,100804.30
2017-08-29T06:43:00.851Z,100800.66
2017-08-29T06:45:28.195Z,100804.23
2017-08-29T06:47:55.772Z,100803.33
2017-08-29T06:50:22.937Z,100800.71
2017-08-29T06:52:50.330Z,100803.41
2017-08-29T06:55:17.493Z,100796.73
2017-08-29T06:57:44.876Z,100796.70
2017-08-29T07:00:12.329Z,100799.72
2017-08-29T07:02:39.493Z,100788.54
2017-08-29T07:05:06.936Z,100788.88
2017-08-29T07:07:34.404Z,100790.22
2017-08-29T07:10:01.599Z,100786.63
2017-08-29T07:12:28.996Z,100783.91
2017-08-29T07:14:56.456Z,100791.50
2017-08-29T07:17:23.918Z,100792.34
2017-08-29T07:19:51.578Z,100793.26
2017-08-29T07:22:18.818Z,100791.01
2017-08-29T07:24:46.488Z,100791.98
2017-08-29T07:27:14.074Z,100797.75
2017-08-29T07:29:41.508Z,100790.09
2017-08-29T07:32:09.166Z,100794.08
2017-08-29T07:34:36.428Z,100792.75
2017-08-29T07:37:04.076Z,100793.11
2017-08-29T07:39:31.652Z,100790.38
2017-08-29T07:41:58.822Z,100792.56
2017-08-29T07:44:26.475Z,100785.58
2017-08-29T07:46:53.672Z,100781.66
2017-08-29T07:49:21.168Z,100788.73
2017-08-29T07:51:48.347Z,100782.08
2017-08-29T07:54:15.975Z,100778.47
2017-08-29T07:56:43.152Z,100779.20
2017-08-29T07:59:10.584Z,100780.88
2017-08-29T08:01:38.154Z,100769.55
2017-08-29T08:04:05.610Z,100773.88
2017-08-29T08:06:32.801Z,100773.27
2017-08-29T08:08:59.966Z,100773.89
2017-08-29T08:11:27.675Z,100768.45
2017-08-29T08:13:55.291Z,100771.50
2017-08-29T08:16:22.580Z,100767.91
2017-08-29T08:18:49.754Z,100774.08
2017-08-29T08:21:16.931Z,100770.34
2017-08-29T08:23:44.109Z,100768.95
2017-08-29T08:26:11.805Z,100770.28
2017-08-29T08:28:39.012Z,100769.23
2017-08-29T08:31:06.200Z,100774.15
2017-08-29T08:33:33.557Z,100774.15
2017-08-29T08:36:01.205Z,100768.80
2017-08-29T08:38:28.541Z,100767.44
2017-08-29T08:40:55.727Z,100768.20
2017-08-29T08:43:23.076Z,100764.19
2017-08-29T08:45:50.723Z,100763.16
2017-08-29T08:48:17.897Z,100758.57
2017-08-29T08:50:45.330Z,100757.72
2017-08-29T08:53:12.600Z,100754.20
2017-08-29T08:55:39.779Z,100755.41
2017-08-29T08:58:07.004Z,100755.41
2017-08-29T09:00:34.357Z,100758.74
2017-08-29T09:03:01.544Z,100755.13
2017-08-29T09:05:29.035Z,100755.36
2017-08-29T09:07:56.604Z,100751.14
2017-08-29T09:10:23.782Z,100755.09
2017-08-29T09:12:51.028Z,100749.66
2017-08-29T09:15:18.681Z,100749.39
2017-08-29T09:17:45.859Z,100746.47
2017-08-29T09:20:13.093Z,100745.90
2017-08-29T09:22:40.734Z,100745.78
2017-08-29T09:25:08.015Z,100743.19
2017-08-29T09:27:35.671Z,100738.63
2017-08-29T09:30:02.925Z,100732.18
2017-08-29T09:32:30.456Z,100733.66
2017-08-29T09:34:57.948Z,100731.54
2017-08-29T09:37:25.118Z,100735.58
2017-08-29T09:39:52.289Z,100721.84
2017-08-29T09:42:19.592Z,100721.02
2017-08-29T09:44:47.251Z,100722.42
2017-08-29T09:47:14.509Z,100714.83
2017-08-29T09:49:41.974Z,100708.84
2017-08-29T09:52:09.496Z,100706.72
2017-08-29T09:54:36.990Z,100695.88
2017-08-29T09:57:04.340Z,100690.33
2017-08-29T09:59:31.803Z,100690.66
2017-08-29T10:01:59.284Z,100695.58
2017-08-29T10:04:26.448Z,100690.17
2017-08-29T10:06:53.635Z,100694.61
2017-08-29T10:09:20.898Z,100687.50
2017-08-29T10:11:48.476Z,100694.19
2017-08-29T10:14:16.031Z,100687.08
2017-08-29T10:16:43.211Z,100679.12
2017-08-29T10:19:10.531Z,100682.58
2017-08-29T10:21:37.996Z,100684.34
2017-08-29T10:24:05.166Z,100683.43
2017-08-29T10:26:32.614Z,100678.51
2017-08-29T10:28:59.795Z,100682.52
2017-08-29T10:31:26.975Z,100680.73
2017-08-29T10:33:54.927Z,100674.05
2017-08-29T10:36:22.423Z,100678.05
2017-08-29T10:38:49.607Z,100673.56
2017-08-29T10:41:17.033Z,100675.32
2017-08-29T10:43:44.502Z,100672.64
2017-08-29T10:46:11.948Z,100679.45
2017-08-29T10:48:39.405Z,100675.80
2017-08-29T10:51:06.859Z,100672.19
2017-08-29T10:53:34.319Z,100671.06
2017-08-29T10:56:01.485Z,100670.05
2017-08-29T10:58:28.994Z,100669.69
2017-08-29T11:00:56.565Z,100667.95
2017-08-29T11:03:23.842Z,100665.03
2017-08-29T11:05:51.016Z,100672.27
2017-08-29T11:08:18.200Z,100659.53
2017-08-29T11:10:45.710Z,100660.03
2017-08-29T11:13:13.252Z,100652.02
2017-08-29T11:15:40.523Z,100650.34
2017-08-29T11:18:07.974Z,100651.62
2017-08-29T11:20:35.467Z,100651.16
2017-08-29T11:23:02.894Z,100644.47
2017-08-29T11:25:30.104Z,100649.67
2017-08-29T11:27:57.294Z,100653.95
2017-08-29T11:30:24.488Z,100649.88
2017-08-29T11:32:51.689Z,100648.36
2017-08-29T11:35:18.954Z,100649.83
2017-08-29T11:37:46.405Z,100645.48
2017-08-29T11:40:13.669Z,100647.42
2017-08-29T11:42:40.876Z,100644.25
2017-08-29T11:45:08.063Z,100645.50
2017-08-29T11:47:35.284Z,100635.85
2017-08-29T11:50:02.470Z,100636.01
2017-08-29T11:52:29.918Z,100628.67
2017-08-29T11:54:57.110Z,100625.58
2017-08-29T11:57:24.301Z,100630.67
2017-08-29T11:59:51.993Z,100632.50
2017-08-29T12:02:19.441Z,100627.80
2017-08-29T12:04:46.629Z,100628.22
2017-08-29T12:07:14.168Z,100625.58
2017-08-29T12:09:41.504Z,100623.23
2017-08-29T12:12:08.700Z,100620.06
2017-08-29T12:14:36.228Z,100623.13
2017-08-29T12:17:03.762Z,100618.12
2017-08-29T12:19:31.344Z,100612.04
2017-08-29T12:21:58.786Z,100620.95
2017-08-29T12:24:25.958Z,100621.38
2017-08-29T12:26:53.401Z,100609.08
2017-08-29T12:29:20.857Z,100604.48
2017-08-29T12:31:48.492Z,100595.38
2017-08-29T12:34:16.084Z,100590.88
2017-08-29T12:36:43.603Z,100591.95
2017-08-29T12:39:10.999Z,100593.07
2017-08-29T12:41:38.456Z,100590.53
2017-08-29T12:44:05.915Z,100587.95
2017-08-29T12:46:33.424Z,100589.81
2017-08-29T12:49:00.941Z,100589.71
2017-08-29T12:51:28.184Z,100583.67
2017-08-29T12:53:55.426Z,100584.36
2017-08-29T12:56:22.632Z,100589.77
2017-08-29T12:58:50.349Z,100591.81
2017-08-29T13:01:18.004Z,100586.75
2017-08-29T13:03:45.261Z,100583.33
2017-08-29T13:06:12.438Z,100586.84
2017-08-29T13:08:39.866Z,100582.99
2017-08-29T13:11:07.052Z,100576.15
2017-08-29T13:13:34.667Z,100579.47
2017-08-29T13:16:01.938Z,100576.37
2017-08-29T13:18:29.451Z,100574.64
2017-08-29T13:20:56.849Z,100563.48
2017-08-29T13:23:24.042Z,100564.00
2017-08-29T13:25:51.530Z,100555.55
2017-08-29T13:28:19.099Z,100559.14
2017-08-29T13:30:46.285Z,100556.03
2017-08-29T13:33:13.524Z,100553.52
2017-08-29T13:35:41.056Z,100555.34
2017-08-29T13:38:08.620Z,100559.61
2017-08-29T13:40:35.804Z,100552.14
2017-08-29T13:43:03.106Z,100549.30
2017-08-29T13:45:30.496Z,100543.41
2017-08-29T13:47:58.140Z,100541.84
2017-08-29T13:50:25.481Z,100530.53
2017-08-29T13:52:53.479Z,100536.73
2017-08-29T13:55:21.143Z,100537.70
2017-08-29T13:57:48.310Z,100532.76
2017-08-29T14:00:15.555Z,100524.53
2017-08-29T14:02:43.197Z,100517.12
2017-08-29T14:05:10.464Z,100516.70
2017-08-29T14:07:37.915Z,100513.27
2017-08-29T14:10:05.408Z,100514.68
2017-08-29T14:12:32.835Z,100506.30
2017-08-29T14:15:00.005Z,100512.98
2017-08-29T14:17:27.677Z,100504.99
2017-08-29T14:19:54.970Z,100506.88
2017-08-29T14:22:22.164Z,100509.13
2017-08-29T14:24:49.514Z,100510.92
2017-08-29T14:27:16.704Z,100513.59
2017-08-29T14:29:44.445Z,100506.55
2017-08-29T14:32:12.057Z,100498.17
2017-08-29T14:34:39.337Z,100498.11
2017-08-29T14:37:07.109Z,100505.73
2017-08-29T14:39:34.307Z,100504.45
2017-08-29T14:42:01.507Z,100497.77
2017-08-29T14:44:28.857Z,100509.80
2017-08-29T14:46:56.512Z,100496.08
2017-08-29T14:49:23.782Z,100498.33
2017-08-29T14:51:51.050Z,100495.69
2017-08-29T14:54:18.380Z,100489.91
2017-08-29T14:56:45.579Z,100495.75
2017-08-29T14:59:12.994Z,100487.83
2017-08-29T15:01:40.759Z,100489.13
2017-08-29T15:04:08.208Z,100491.80
2017-08-29T15:06:35.381Z,100486.91
2017-08-29T15:09:02.819Z,100488.25
2017-08-29T15:11:30.286Z,100485.64
2017-08-29T15:13:57.734Z,100486.55
2017-08-29T15:16:24.918Z,100483.81
2017-08-29T15:18:52.090Z,100481.64
2017-08-29T15:21:19.612Z,100473.63
2017-08-29T15:23:47.004Z,100474.48
2017-08-29T15:26:14.188Z,100469.81
2017-08-29T15:28:41.376Z,100468.63
2017-08-29T15:31:08.554Z,100467.45
2017-08-29T15:33:36.169Z,100460.90
2017-08-29T15:36:03.342Z,100461.33
2017-08-29T15:38:30.593Z,100461.48
2017-08-29T15:40:57.921Z,100462.82
2017-08-29T15:43:25.493Z,100463.34
2017-08-29T15:45:52.675Z,100461.09
2017-08-29T15:48:19.873Z,100459.81
2017-08-29T15:50:47.137Z,100468.33
2017-08-29T15:53:14.320Z,100470.58
2017-08-29T15:55:41.930Z,100470.52
2017-08-29T15:58:09.519Z,100468.36
2017-08-29T16:00:36.962Z,100467.48
2017-08-29T16:03:04.611Z,100471.03
2017-08-29T16:05:31.877Z,100467.41
2017-08-29T16:07:59.397Z,100471.69
2017-08-29T16:10:26.588Z,100465.70
2017-08-29T16:12:53.761Z,100459.41
2017-08-29T16:15:21.098Z,100456.70
2017-08-29T16:17:48.339Z,100456.94
2017-08-29T16:20:15.702Z,100456.77
2017-08-29T16:22:42.881Z,100452.27
2017-08-29T16:25:10.062Z,100449.86
2017-08-29T16:27:37.410Z,100448.43
2017-08-29T16:30:05.259Z,100450.55
2017-08-29T16:32:33.194Z,100452.73
2017-08-29T16:35:00.376Z,100442.78
2017-08-29T16:37:27.658Z,100443.44
2017-08-29T16:39:55.062Z,100441.25
2017-08-29T16:42:22.246Z,100441.19
2017-08-29T16:44:49.424Z,100434.98
2017-08-29T16:47:16.612Z,100441.19
2017-08-29T16:49:43.958Z,100439.30
2017-08-29T16:52:11.423Z,100439.91
2017-08-29T16:54:38.866Z,100443.20
2017-08-29T16:57:06.069Z,100441.96
2017-08-29T16:59:33.592Z,100445.58
2017-08-29T17:02:00.784Z,100446.55
2017-08-29T17:04:28.095Z,100451.48
2017-08-29T17:06:55.635Z,100451.05
2017-08-29T17:09:23.087Z,100443.98
